Latest Weather Observations for Oakey

IDQ60801

Issued at 6:32 am EST Saturday 5 September 2015 (issued every 30 minutes, with the page automatically refreshed every 10 minutes)

About weather observations | Map of weather stations | Latest weather observations for QLD | Other Formats
Station Details ID: 041359 Name: OAKEY AERO Lat: -27.40 Lon: 151.74 Height: 405.69 m
Data from the previous 72 hours. | See also: Recent months at Oakey
Date/Time
EST
Temp
°C
App
Temp
°C
Dew
Point
Rel
Hum
%
Delta-T
°C
Wind Press
QNH
hPa
Press
MSL
hPa
Rain
since 9 am
mm
Dir
 
Spd
km/h
Gust
km/h
Spd
kts
Gust
kts
05/06:00am 6.8 4.7 5.6 92 0.5 SSE 6 7 3 4 1021.8 1021.1 0.0
05/05:30am 6.8 4.5 4.6 86 1.0 S 6 7 3 4 1021.6 1020.9 0.0
05/05:00am 7.9 5.7 5.5 85 1.1 SE 6 6 3 3 1021.3 1020.6 0.0
05/04:30am 8.8 6.8 6.2 84 1.2 SE 6 7 3 4 1021.0 1020.2 0.0
05/04:00am 9.9 8.1 7.3 84 1.3 SSE 6 7 3 4 1020.8 1020.0 0.0
05/03:30am 10.0 7.7 7.3 83 1.3 ENE 9 11 5 6 1020.3 1019.6 0.0
05/03:00am 9.6 7.0 6.1 79 1.6 E 9 11 5 6 1020.3 1019.6 0.0
05/02:30am 10.4 8.4 6.9 79 1.7 ESE 7 11 4 6 1020.5 1019.8 0.0
05/02:00am 10.4 8.0 6.9 79 1.7 NE 9 11 5 6 1020.5 1019.8 0.0
05/01:30am 10.7 8.3 6.8 77 1.9 NE 9 13 5 7 1020.9 1020.1 0.0
05/01:00am 11.9 9.5 7.0 72 2.4 NE 9 11 5 6 1021.1 1020.3 0.0
05/12:30am 12.4 9.6 7.1 70 2.6 NE 11 17 6 9 1021.3 1020.6 0.0
05/12:00am 12.4 10.2 7.7 73 2.3 NE 9 15 5 8 1021.4 1020.7 0.0
 
Date/Time
EST
Temp
°C
App
Temp
°C
Dew
Point
Rel
Hum
%
Delta-T
°C
Wind Press
QNH
hPa
Press
MSL
hPa
Rain
since 9 am
mm
Dir
 
Spd
km/h
Gust
km/h
Spd
kts
Gust
kts
04/11:30pm 11.9 9.6 7.6 75 2.1 NNE 9 11 5 6 1021.4 1020.7 0.0
04/11:00pm 11.4 9.5 6.5 72 2.4 N 6 7 3 4 1021.4 1020.7 0.0
04/10:30pm 13.6 9.8 7.6 67 3.0 NE 17 20 9 11 1021.3 1020.6 0.0
04/10:00pm 13.8 10.4 7.6 66 3.1 NE 15 19 8 10 1021.2 1020.5 0.0
04/09:30pm 14.3 10.5 7.6 64 3.4 NE 17 20 9 11 1021.0 1020.2 0.0
04/09:00pm 14.4 10.9 7.0 61 3.7 E 15 20 8 11 1021.1 1020.3 0.0
04/08:30pm 15.9 12.1 7.4 57 4.3 ESE 17 20 9 11 1021.1 1020.3 0.0
04/08:00pm 16.3 12.9 7.5 56 4.5 E 15 20 8 11 1020.8 1020.0 0.0
04/07:30pm 17.0 14.1 8.2 56 4.6 ENE 13 17 7 9 1020.4 1019.7 0.0
04/07:00pm 17.6 15.5 8.2 54 4.9 NE 9 13 5 7 1019.9 1019.2 0.0
04/06:30pm 18.2 14.9 7.9 51 5.4 ENE 15 19 8 10 1019.5 1018.8 0.0
04/06:00pm 19.1 14.8 7.2 46 6.1 NE 19 22 10 12 1019.0 1018.3 0.0
04/05:30pm 19.6 16.1 7.0 44 6.5 ENE 15 20 8 11 1018.7 1017.9 0.0
04/05:00pm 20.5 17.5 6.1 39 7.3 NE 11 17 6 9 1018.2 1017.4 0.0
04/04:30pm 21.1 17.7 5.9 37 7.8 ENE 13 17 7 9 1017.9 1017.2 0.0
04/04:00pm 21.1 17.2 5.5 36 7.9 ENE 15 20 8 11 1017.7 1017.0 0.0
04/03:30pm 21.1 17.6 5.5 36 7.9 NE 13 20 7 11 1017.7 1017.0 0.0
04/03:00pm 20.9 18.5 6.8 40 7.3 NNE 9 17 5 9 1017.6 1016.9 0.0
04/02:30pm 20.7 18.0 7.3 42 7.0 NNE 11 15 6 8 1017.6 1016.9 0.0
04/02:00pm 20.4 18.3 8.4 46 6.4 ESE 9 20 5 11 1017.8 1017.1 0.0
04/01:30pm 19.5 16.5 7.9 47 6.1 SSE 13 20 7 11 1018.0 1017.3 0.0
04/01:00pm 18.7 16.4 7.5 48 5.8 SE 9 20 5 11 1018.5 1017.7 0.0
04/12:30pm 18.5 16.2 7.6 49 5.7 ENE 9 17 5 9 1019.0 1018.3 0.0
04/12:00pm 18.0 15.3 7.4 50 5.4 E 11 20 6 11 1019.4 1018.7 0.0
04/11:30am 17.4 13.6 7.5 52 5.1 W 17 20 9 11 1019.8 1019.1 0.0
04/11:00am 15.9 12.0 7.1 56 4.4 W 17 24 9 13 1020.1 1019.4 0.0
04/10:30am 15.8 11.7 8.5 62 3.8 W 20 28 11 15 1020.3 1019.6 0.0
04/10:00am 14.7 11.5 8.6 67 3.1 WNW 15 22 8 12 1020.5 1019.8 0.0
04/09:30am 12.9 9.5 7.8 71 2.6 W 15 19 8 10 1021.0 1020.2 0.0
04/09:00am 12.4 9.2 8.3 76 2.1 W 15 20 8 11 1020.8 1020.0 0.0
04/08:30am 10.9 8.3 7.6 80 1.6 W 11 19 6 10 1020.3 1019.6 0.0
04/08:00am 9.9 6.8 7.3 84 1.3 W 13 17 7 9 1019.9 1019.2 0.0
04/07:30am 8.6 5.3 6.6 87 0.9 WNW 13 15 7 8 1019.4 1018.7 0.0
04/07:00am 7.3 3.9 5.9 91 0.6 WNW 13 17 7 9 1019.3 1018.6 0.0
04/06:30am 6.1 2.1 4.7 91 0.6 W 15 17 8 9 1018.9 1018.1 0.0
04/06:00am 5.4 1.6 4.1 91 0.6 WNW 13 17 7 9 1018.5 1017.7 0.0
04/05:30am 5.1 1.6 3.6 90 0.6 WNW 11 13 6 7 1017.9 1017.2 0.0
04/05:00am 5.6 3.9 4.2 91 0.6 NNW 2 7 1 4 1017.7 1017.0 0.0
04/04:30am 5.4 1.6 3.9 90 0.6 W 13 15 7 8 1017.3 1016.6 0.0
04/04:00am 6.0 2.9 3.7 85 1.0 W 9 13 5 7 1017.2 1016.5 0.0
04/03:30am 6.4 3.8 4.1 85 1.0 NW 7 7 4 4 1017.3 1016.6 0.0
04/03:00am 6.5 2.8 4.2 85 1.0 W 13 15 7 8 1017.1 1016.4 0.0
04/02:30am 6.1 1.9 3.8 85 1.0 WSW 15 19 8 10 1017.5 1016.8 0.0
04/02:00am 6.4 2.6 3.9 84 1.1 WSW 13 19 7 10 1017.4 1016.7 0.0
04/01:30am 6.7 1.9 4.4 85 1.0 WSW 19 20 10 11 1017.2 1016.5 0.0
04/01:00am 6.6 1.7 4.3 85 1.0 WSW 19 20 10 11 1017.4 1016.7 0.0
04/12:30am 6.3 2.5 4.1 86 1.0 W 13 15 7 8 1017.7 1017.0 0.0
04/12:00am 6.5 2.8 4.2 85 1.0 W 13 13 7 7 1017.7 1017.0 0.0
 
Date/Time
EST
Temp
°C
App
Temp
°C
Dew
Point
Rel
Hum
%
Delta-T
°C
Wind Press
QNH
hPa
Press
MSL
hPa
Rain
since 9 am
mm
Dir
 
Spd
km/h
Gust
km/h
Spd
kts
Gust
kts
03/11:30pm 7.2 3.5 4.7 84 1.1 WNW 13 15 7 8 1017.9 1017.2 0.0
03/11:00pm 7.3 3.7 4.8 84 1.1 W 13 15 7 8 1018.2 1017.4 0.0
03/10:30pm 7.4 4.1 4.7 83 1.2 WNW 11 13 6 7 1018.2 1017.4 0.0
03/10:00pm 7.9 4.7 5.2 83 1.2 W 11 13 6 7 1018.0 1017.3 0.0
03/09:30pm 8.1 5.0 5.4 83 1.2 W 11 13 6 7 1017.8 1017.1 0.0
03/09:00pm 8.7 5.5 5.3 79 1.6 W 11 13 6 7 1017.4 1016.7 0.0
03/08:30pm 9.9 6.7 5.1 72 2.2 W 11 13 6 7 1017.0 1016.3 0.0
03/08:00pm 11.4 7.4 5.1 65 2.9 WSW 15 17 8 9 1016.8 1016.0 0.0
03/07:30pm 12.7 7.7 4.7 58 3.8 WSW 20 24 11 13 1016.3 1015.5 0.0
03/07:00pm 13.8 8.1 4.7 54 4.3 WSW 24 28 13 15 1015.8 1015.0 0.0
03/06:30pm 14.9 7.4 4.3 49 5.0 W 33 46 18 25 1015.1 1014.4 0.0
03/06:00pm 15.4 8.2 5.0 50 5.0 W 32 41 17 22 1014.4 1013.6 0.0
03/05:30pm 16.6 8.0 4.6 45 5.8 W 39 46 21 25 1013.8 1013.0 0.0
03/05:00pm 18.0 9.0 4.6 41 6.5 W 41 54 22 29 1013.3 1012.5 0.0
03/04:30pm 18.8 9.2 4.6 39 7.0 WNW 44 59 24 32 1012.7 1012.0 0.0
03/04:00pm 18.5 9.0 3.9 38 7.0 W 43 54 23 29 1012.4 1011.6 0.0
03/03:30pm 19.5 9.5 4.4 37 7.4 W 46 59 25 32 1012.2 1011.4 0.0
03/03:00pm 19.9 10.5 4.4 36 7.6 W 43 56 23 30 1012.0 1011.2 0.0
03/02:30pm 19.8 9.5 2.6 32 8.2 W 46 63 25 34 1011.8 1011.0 0.0
03/02:22pm 20.2 10.6 3.4 33 8.1 WNW 43 63 23 34 1011.7 1010.9 0.0
03/02:00pm 19.8 9.5 2.6 32 8.2 WNW 46 57 25 31 1011.8 1011.0 0.0
03/01:30pm 20.1 11.9 4.6 36 7.7 WNW 37 48 20 26 1011.6 1010.8 0.0
03/01:00pm 19.0 9.7 3.2 35 7.6 WNW 41 50 22 27 1011.9 1011.1 0.0
03/12:30pm 19.3 12.7 6.1 42 6.7 WNW 30 39 16 21 1012.4 1011.6 0.0
03/12:00pm 18.0 10.6 3.9 39 6.8 WNW 32 39 17 21 1013.1 1012.3 0.0
03/11:30am 17.4 9.1 4.0 41 6.4 W 37 48 20 26 1014.2 1013.4 0.0
03/11:00am 17.7 10.6 5.3 44 6.1 W 32 41 17 22 1014.6 1013.8 0.0
03/10:30am 16.6 9.6 4.3 44 5.9 W 30 39 16 21 1015.0 1014.3 0.0
03/10:00am 15.7 9.8 5.9 52 4.8 W 26 32 14 17 1015.0 1014.3 0.0
03/09:30am 15.5 10.2 8.3 62 3.7 WNW 26 32 14 17 1014.8 1014.1 0.0
03/09:00am 15.3 8.9 7.1 58 4.1 W 30 37 16 20 1014.6 1013.8 7.8
03/08:30am 15.8 9.8 8.8 63 3.7 WSW 30 41 16 22 1014.4 1013.6 7.8
03/08:08am 15.6 10.7 12.5 82 1.7 WSW 30 37 16 20 1014.0 1013.2 7.8
03/08:00am 16.0 10.7 12.4 79 2.0 WSW 32 39 17 21 1014.0 1013.2 7.8
03/07:47am 15.9 10.5 12.3 79 2.0 W 32 39 17 21 1013.9 1013.1 7.8
03/07:33am 17.0 11.7 14.1 83 1.7 NW 35 54 19 29 1013.4 1012.6 7.8
03/07:30am 17.6 13.2 15.6 88 1.2 NW 33 41 18 22 1013.3 1012.5 7.8
03/07:00am 17.7 13.4 15.3 86 1.4 NW 32 44 17 24 1012.8 1012.1 7.6
03/06:30am 17.4 13.5 15.4 88 1.2 NW 30 41 16 22 1012.5 1011.7 7.6
03/06:00am 16.3 15.2 15.3 94 0.6 NNW 15 22 8 12 1012.3 1011.5 7.6
03/05:36am 15.6 15.8 14.8 95 0.5 NW 7 11 4 6 1012.0 1011.2 7.6
03/05:30am 15.6 15.8 14.6 94 0.6 NW 7 11 4 6 1011.9 1011.1 7.6
03/05:26am 15.5 15.2 14.5 94 0.6 W 9 24 5 13 1012.0 1011.2 7.6
03/05:00am 16.1 15.9 14.6 91 0.9 WNW 9 13 5 7 1011.9 1011.1 7.4
03/04:30am 16.3 13.6 14.7 90 0.9 N 22 30 12 16 1011.3 1010.5 6.8
03/04:00am 15.9 14.0 14.3 90 0.9 NNE 17 24 9 13 1011.2 1010.4 6.6
03/03:30am 15.4 13.9 14.1 92 0.7 NNE 15 20 8 11 1011.6 1010.8 6.6
03/03:00am 14.9 13.6 13.6 92 0.7 NNE 13 17 7 9 1011.8 1011.0 6.6
03/02:30am 14.7 12.5 13.4 92 0.7 NE 17 20 9 11 1012.0 1011.2 6.6
03/02:00am 14.4 11.6 13.1 92 0.7 NE 20 24 11 13 1012.7 1012.0 6.6
03/01:30am 14.2 11.3 12.9 92 0.7 NE 20 24 11 13 1013.4 1012.6 6.6
03/01:00am 14.0 11.0 12.6 91 0.8 NE 20 22 11 12 1014.1 1013.3 6.6
03/12:51am 13.9 10.9 12.5 91 0.8 NE 20 24 11 13 1014.1 1013.3 6.6
03/12:30am 14.2 12.2 12.8 91 0.8 NNE 15 19 8 10 1015.3 1014.6 5.8
03/12:01am 14.8 14.1 11.9 83 1.6 N 7 17 4 9 1015.3 1014.6 3.0
03/12:00am 14.8 13.7 11.9 83 1.6 N 9 19 5 10 1015.4 1014.7 2.8
 
Date/Time
EST
Temp
°C
App
Temp
°C
Dew
Point
Rel
Hum
%
Delta-T
°C
Wind Press
QNH
hPa
Press
MSL
hPa
Rain
since 9 am
mm
Dir
 
Spd
km/h
Gust
km/h
Spd
kts
Gust
kts
02/11:30pm 15.1 11.7 12.4 84 1.5 NE 22 30 12 16 1014.6 1013.8 2.2
02/11:11pm 14.6 13.6 12.3 86 1.3 NNW 9 28 5 15 1014.4 1013.6 2.2
02/11:00pm 15.0 13.2 12.1 83 1.6 N 13 17 7 9 1016.7 1015.9 1.8
02/10:30pm 16.3 13.7 9.3 63 3.7 NNE 13 17 7 9 1016.2 1015.4 0.0
02/10:00pm 17.4 14.1 6.6 49 5.5 NE 13 17 7 9 1015.3 1014.6 0.0
02/09:30pm 17.2 13.1 6.4 49 5.4 NE 17 19 9 10 1014.9 1014.2 0.0
02/09:00pm 15.9 12.5 7.7 58 4.2 NE 15 19 8 10 1014.7 1014.0 0.0
02/08:30pm 15.9 11.3 6.6 54 4.6 NE 20 24 11 13 1014.7 1014.0 0.0
02/08:00pm 15.3 11.2 6.3 55 4.5 NE 17 20 9 11 1014.6 1013.8 0.0
02/07:30pm 14.9 10.7 5.7 54 4.5 NE 17 19 9 10 1014.6 1013.8 0.0
02/07:00pm 15.7 11.6 6.2 53 4.7 NE 17 20 9 11 1014.3 1013.5 0.0
02/06:30pm 16.9 13.0 5.5 47 5.6 NE 15 17 8 9 1014.3 1013.5 0.0
02/06:00pm 18.3 14.6 4.5 40 6.7 NE 13 15 7 8 1014.6 1013.8 0.0
02/05:30pm 20.7 16.9 3.9 33 8.2 NNE 13 17 7 9 1014.1 1013.3 0.0
02/05:00pm 24.0 19.1 2.2 24 10.6 NNE 17 24 9 13 1014.3 1013.5 0.0
02/04:30pm 24.0 19.0 1.6 23 10.8 N 17 24 9 13 1014.3 1013.5 0.0
02/04:00pm 24.8 19.4 1.0 21 11.4 N 19 22 10 12 1014.3 1013.5 0.0
02/03:30pm 25.1 20.0 0.6 20 11.6 N 17 22 9 12 1013.9 1013.1 0.0
02/03:00pm 25.5 20.9 1.6 21 11.6 NNW 15 22 8 12 1014.2 1013.4 0.0
02/02:30pm 24.5 18.8 0.8 21 11.3 N 20 28 11 15 1014.6 1013.8 0.0
02/02:00pm 25.0 18.6 1.2 21 11.4 NW 24 35 13 19 1015.0 1014.3 0.0
02/01:30pm 24.6 19.2 1.5 22 11.1 NNW 19 33 10 18 1015.7 1014.9 0.0
02/01:00pm 24.0 18.3 0.4 21 11.1 NW 20 33 11 18 1016.4 1015.6 0.0
02/12:30pm 23.7 18.0 0.7 22 10.8 NNW 20 32 11 17 1017.0 1016.3 0.0
02/12:00pm 23.2 17.7 0.9 23 10.5 NNW 19 28 10 15 1017.6 1016.9 0.0
02/11:30am 22.8 18.9 3.4 28 9.6 NNW 13 24 7 13 1018.3 1017.5 0.0
02/11:00am 22.3 17.4 1.9 26 9.7 NNW 17 28 9 15 1018.8 1018.0 0.0
02/10:30am 21.1 18.6 4.6 34 8.2 NW 7 11 4 6 1019.2 1018.5 0.0
02/10:00am 19.5 17.3 5.2 39 7.1 NE 6 9 3 5 1019.7 1019.0 0.0
02/09:30am 16.7 15.3 5.6 48 5.5 NNE 2 7 1 4 1020.1 1019.4 0.0
02/09:00am 14.7 11.5 5.2 53 4.6 ESE 11 13 6 7 1020.0 1019.3 0.0
02/08:30am 12.3 9.5 5.0 61 3.4 ESE 9 11 5 6 1020.0 1019.3 0.0
02/08:00am 11.2 8.4 5.3 67 2.8 ENE 9 11 5 6 1019.6 1018.9 0.0
02/07:30am 9.4 6.2 5.2 75 1.9 ENE 11 13 6 7 1019.4 1018.7 0.0
02/07:00am 6.8 3.8 4.1 83 1.2 E 9 13 5 7 1019.3 1018.6 0.0

Other Formats:

Comma delimited format used in spreadsheet applications
http://www.bom.gov.au/fwo/IDQ60801/IDQ60801.94552.axf

JavaScript Object Notation format (JSON) in row-major order
http://www.bom.gov.au/fwo/IDQ60801/IDQ60801.94552.json